createdAt,value
2019-02-06T00:04:03.375Z,24.63
2019-02-06T00:06:48.593Z,24.33
2019-02-06T00:09:30.579Z,24.73
2019-02-06T00:12:12.442Z,27.47
2019-02-06T00:14:55.125Z,23.37
2019-02-06T00:17:37.949Z,25.43
2019-02-06T00:20:19.662Z,23.30
2019-02-06T00:23:01.523Z,23.85
2019-02-06T00:25:44.095Z,23.83
2019-02-06T00:28:26.659Z,23.85
2019-02-06T00:31:08.582Z,23.13
2019-02-06T00:33:50.173Z,22.17
2019-02-06T00:36:31.901Z,26.90
2019-02-06T00:39:13.831Z,22.67
2019-02-06T00:41:55.694Z,23.25
2019-02-06T00:44:37.642Z,23.62
2019-02-06T00:47:19.337Z,21.77
2019-02-06T00:50:01.540Z,20.68
2019-02-06T00:52:43.837Z,23.38
2019-02-06T00:55:25.823Z,22.07
2019-02-06T00:58:07.926Z,22.37
2019-02-06T01:00:50.199Z,20.68
2019-02-06T01:03:32.199Z,22.55
2019-02-06T01:06:14.350Z,23.07
2019-02-06T01:08:56.603Z,22.98
2019-02-06T01:11:38.365Z,20.62
2019-02-06T01:14:18.789Z,21.05
2019-02-06T01:17:08.511Z,20.37
2019-02-06T01:19:52.402Z,18.00
2019-02-06T01:22:34.782Z,18.73
2019-02-06T01:25:16.972Z,17.50
2019-02-06T01:27:59.123Z,17.40
2019-02-06T01:33:59.670Z,16.60
2019-02-06T01:36:41.571Z,16.87
2019-02-06T01:39:23.503Z,18.35
2019-02-06T01:42:05.546Z,19.00
2019-02-06T01:44:47.514Z,19.40
2019-02-06T01:47:29.662Z,15.90
2019-02-06T01:50:00.032Z,17.00
2019-02-06T01:52:50.954Z,13.90
2019-02-06T01:55:34.893Z,15.15
2019-02-06T01:58:16.618Z,18.60
2019-02-06T02:00:58.855Z,14.05
2019-02-06T02:03:40.695Z,16.50
2019-02-06T02:06:22.440Z,16.93
2019-02-06T02:09:06.242Z,18.67
2019-02-06T02:11:48.578Z,19.62
2019-02-06T02:14:30.921Z,18.60
2019-02-06T02:17:13.490Z,16.50
2019-02-06T02:19:55.423Z,16.35
2019-02-06T02:22:37.593Z,13.75
2019-02-06T02:25:19.702Z,14.13
2019-02-06T02:28:01.850Z,13.43
2019-02-06T02:30:50.191Z,16.85
2019-02-06T02:33:34.151Z,14.33
2019-02-06T02:36:16.589Z,14.18
2019-02-06T02:38:59.056Z,12.75
2019-02-06T02:41:41.674Z,13.88
2019-02-06T02:44:23.653Z,11.65
2019-02-06T02:47:05.867Z,13.38
2019-02-06T02:49:47.982Z,14.65
2019-02-06T02:52:29.763Z,15.35
2019-02-06T02:55:11.683Z,14.58
2019-02-06T02:57:53.798Z,13.80
2019-02-06T03:04:02.927Z,12.00
2019-02-06T03:06:45.354Z,13.18
2019-02-06T03:09:27.950Z,14.65
2019-02-06T03:12:10.986Z,13.83
2019-02-06T03:14:52.978Z,13.98
2019-02-06T03:17:34.759Z,18.57
2019-02-06T03:20:16.954Z,16.27
2019-02-06T03:22:57.633Z,17.42
2019-02-06T03:25:47.050Z,20.17
2019-02-06T03:28:31.100Z,18.32
2019-02-06T03:31:13.744Z,18.23
2019-02-06T03:33:55.414Z,17.05
2019-02-06T03:36:40.626Z,17.45
2019-02-06T03:39:21.661Z,14.85
2019-02-06T03:42:03.810Z,12.40
2019-02-06T03:44:45.680Z,15.60
2019-02-06T03:47:27.586Z,13.25
2019-02-06T03:50:09.958Z,12.23
2019-02-06T03:52:59.397Z,13.65
2019-02-06T03:55:42.742Z,11.48
2019-02-06T03:58:25.389Z,13.68
2019-02-06T04:01:07.326Z,12.82
2019-02-06T04:03:49.409Z,17.98
2019-02-06T04:06:31.919Z,15.50
2019-02-06T04:09:13.949Z,16.75
2019-02-06T04:11:55.638Z,19.15
2019-02-06T04:14:37.402Z,21.57
2019-02-06T04:17:19.235Z,17.05
2019-02-06T04:20:01.593Z,20.15
2019-02-06T04:22:43.490Z,14.93
2019-02-06T04:25:25.481Z,12.20
2019-02-06T04:28:08.178Z,10.60
2019-02-06T04:30:50.812Z,9.20
2019-02-06T04:33:32.577Z,13.72
2019-02-06T04:36:14.679Z,11.57
2019-02-06T04:38:56.579Z,18.35
2019-02-06T04:41:39.991Z,17.87
2019-02-06T04:44:22.550Z,17.30
2019-02-06T04:47:04.493Z,19.00
2019-02-06T04:49:46.275Z,17.95
2019-02-06T04:52:28.427Z,17.05
2019-02-06T04:55:10.375Z,19.12
2019-02-06T04:57:52.306Z,21.97
2019-02-06T05:00:34.042Z,19.48
2019-02-06T05:03:16.047Z,28.25
2019-02-06T05:05:58.129Z,23.98
2019-02-06T05:08:40.683Z,14.10
2019-02-06T05:11:23.047Z,12.65
2019-02-06T05:14:05.030Z,13.68
2019-02-06T05:16:47.579Z,12.33
2019-02-06T05:19:29.468Z,12.30
2019-02-06T05:22:11.571Z,12.45
2019-02-06T05:24:53.930Z,13.45
2019-02-06T05:27:35.688Z,12.30
2019-02-06T05:30:18.486Z,14.50
2019-02-06T05:33:00.206Z,14.85
2019-02-06T05:35:42.334Z,14.60
2019-02-06T05:38:24.198Z,12.95
2019-02-06T05:41:06.604Z,17.10
2019-02-06T05:43:48.406Z,16.30
2019-02-06T05:46:30.517Z,12.53
2019-02-06T05:49:12.718Z,13.90
2019-02-06T05:51:54.759Z,17.75
2019-02-06T05:54:36.810Z,10.85
2019-02-06T05:57:18.511Z,11.08
2019-02-06T06:00:00.214Z,9.18
2019-02-06T06:02:42.570Z,12.98
2019-02-06T06:05:24.774Z,9.03
2019-02-06T06:08:05.322Z,10.32
2019-02-06T06:10:54.753Z,9.20
2019-02-06T06:13:38.784Z,14.90
2019-02-06T06:16:20.465Z,10.20
2019-02-06T06:19:02.407Z,12.55
2019-02-06T06:21:44.551Z,27.58
2019-02-06T06:24:27.087Z,20.25
2019-02-06T06:27:09.198Z,20.85
2019-02-06T06:29:50.942Z,15.53
2019-02-06T06:32:33.054Z,16.77
2019-02-06T06:35:15.695Z,21.27
2019-02-06T06:38:00.438Z,27.00
2019-02-06T06:40:41.302Z,16.73
2019-02-06T06:43:23.112Z,19.40
2019-02-06T06:46:05.198Z,31.52
2019-02-06T06:48:47.058Z,30.85
2019-02-06T06:51:29.014Z,35.43
2019-02-06T06:54:11.057Z,26.87
2019-02-06T06:56:53.219Z,21.85
2019-02-06T06:59:35.078Z,32.05
2019-02-06T07:02:16.869Z,19.17
2019-02-06T07:04:59.470Z,18.93
2019-02-06T07:07:42.062Z,26.33
2019-02-06T07:10:23.787Z,26.87
2019-02-06T07:13:05.470Z,23.60
2019-02-06T07:15:47.954Z,25.47
2019-02-06T07:18:29.779Z,22.07
2019-02-06T07:21:11.822Z,22.30
2019-02-06T07:23:54.454Z,23.90
2019-02-06T07:26:36.238Z,26.17
2019-02-06T07:29:18.261Z,24.47
2019-02-06T07:31:59.993Z,24.23
2019-02-06T07:34:42.870Z,31.43
2019-02-06T07:37:24.947Z,27.20
2019-02-06T07:40:06.863Z,27.60
2019-02-06T07:42:48.930Z,25.93
2019-02-06T07:45:30.802Z,25.13
2019-02-06T07:48:12.657Z,22.50
2019-02-06T07:50:54.678Z,23.27
2019-02-06T07:53:36.691Z,22.43
2019-02-06T07:56:18.798Z,23.47
2019-02-06T07:59:00.887Z,18.67
2019-02-06T08:01:43.147Z,21.00
2019-02-06T08:04:25.605Z,21.33
2019-02-06T08:07:07.782Z,26.20
2019-02-06T08:09:50.061Z,18.60
2019-02-06T08:12:32.221Z,25.10
2019-02-06T08:15:14.594Z,30.87
2019-02-06T08:17:56.329Z,19.40
2019-02-06T08:20:38.657Z,16.70
2019-02-06T08:23:20.330Z,17.93
2019-02-06T08:26:02.318Z,23.30
2019-02-06T08:28:44.622Z,26.37
2019-02-06T08:31:27.129Z,19.80
2019-02-06T08:34:09.077Z,16.67
2019-02-06T08:36:51.253Z,15.80
2019-02-06T08:39:33.333Z,18.67
2019-02-06T08:42:15.741Z,13.50
2019-02-06T08:44:58.639Z,15.83
2019-02-06T08:47:39.146Z,9.37
2019-02-06T08:50:28.559Z,26.17
2019-02-06T08:53:12.321Z,117.50
2019-02-06T08:55:54.574Z,42.50
2019-02-06T08:58:36.813Z,51.50
2019-02-06T09:01:19.390Z,28.37
2019-02-06T09:04:01.510Z,20.10
2019-02-06T09:06:43.562Z,45.27
2019-02-06T09:09:25.789Z,49.53
2019-02-06T09:12:08.363Z,53.07
2019-02-06T09:14:51.162Z,58.33
2019-02-06T09:17:33.196Z,23.50
2019-02-06T09:20:14.966Z,37.33
2019-02-06T09:22:57.447Z,46.43
2019-02-06T09:25:39.789Z,31.07
2019-02-06T09:28:22.098Z,18.90
2019-02-06T09:31:04.098Z,39.80
2019-02-06T09:33:46.268Z,31.17
2019-02-06T09:36:28.222Z,33.57
2019-02-06T09:39:11.911Z,30.70
2019-02-06T09:41:53.646Z,26.80
2019-02-06T09:44:35.766Z,34.70
2019-02-06T09:47:17.917Z,32.43
2019-02-06T09:49:59.940Z,25.87
2019-02-06T09:52:42.067Z,24.90
2019-02-06T09:55:24.287Z,35.03
2019-02-06T09:58:06.361Z,19.43
2019-02-06T10:00:49.006Z,18.43
2019-02-06T10:03:31.185Z,29.53
2019-02-06T10:06:13.329Z,27.80
2019-02-06T10:08:55.977Z,30.40
2019-02-06T10:11:36.501Z,29.10
2019-02-06T10:14:25.925Z,13.27
2019-02-06T10:17:15.047Z,15.90
2019-02-06T10:19:56.930Z,10.60
2019-02-06T10:22:38.794Z,10.63
2019-02-06T10:25:20.682Z,11.30
2019-02-06T10:28:02.635Z,9.23
2019-02-06T10:30:44.591Z,8.97
2019-02-06T10:33:26.706Z,11.37
2019-02-06T10:36:08.550Z,9.53
2019-02-06T10:38:50.370Z,9.13
2019-02-06T10:41:32.554Z,10.43
2019-02-06T10:44:14.846Z,9.40
2019-02-06T10:46:56.894Z,9.87
2019-02-06T10:49:39.226Z,15.10
2019-02-06T10:52:21.049Z,9.40
2019-02-06T10:55:04.553Z,8.03
2019-02-06T10:57:46.807Z,8.17
2019-02-06T11:00:29.919Z,10.40
2019-02-06T11:03:12.303Z,11.53
2019-02-06T11:05:54.795Z,9.03
2019-02-06T11:08:36.723Z,8.83
2019-02-06T11:11:18.647Z,9.93
2019-02-06T11:14:00.498Z,8.57
2019-02-06T11:16:42.790Z,8.07
2019-02-06T11:19:24.718Z,8.87
2019-02-06T11:22:06.398Z,8.90
2019-02-06T11:24:48.298Z,9.10
2019-02-06T11:27:31.143Z,9.57
2019-02-06T11:30:13.038Z,8.67
2019-02-06T11:32:55.053Z,8.90
2019-02-06T11:35:37.034Z,8.23
2019-02-06T11:38:19.114Z,9.07
2019-02-06T11:41:01.282Z,8.90
2019-02-06T11:43:43.538Z,8.40
2019-02-06T11:46:25.854Z,7.03
2019-02-06T11:49:08.677Z,15.30
2019-02-06T11:51:50.555Z,10.43
2019-02-06T11:54:33.083Z,10.27
2019-02-06T11:57:15.074Z,11.93
2019-02-06T11:59:57.330Z,8.30
2019-02-06T12:02:39.822Z,7.90
2019-02-06T12:05:21.981Z,7.83
2019-02-06T12:08:04.154Z,6.57
2019-02-06T12:10:46.270Z,8.43
2019-02-06T12:13:28.328Z,8.80
2019-02-06T12:16:10.178Z,10.23
2019-02-06T12:18:52.054Z,7.40
2019-02-06T12:21:33.850Z,7.53
2019-02-06T12:24:15.598Z,7.20
2019-02-06T12:26:58.206Z,7.53
2019-02-06T12:29:40.038Z,7.40
2019-02-06T12:32:22.702Z,10.63
2019-02-06T12:35:04.899Z,7.47
2019-02-06T12:37:46.493Z,9.77
2019-02-06T12:40:28.501Z,10.03
2019-02-06T12:43:11.197Z,9.40
2019-02-06T12:45:53.835Z,8.73
2019-02-06T12:48:35.678Z,8.93
2019-02-06T12:51:17.806Z,9.30
2019-02-06T12:54:00.216Z,8.13
2019-02-06T12:56:42.581Z,10.00
2019-02-06T12:59:24.333Z,8.10
2019-02-06T13:02:06.838Z,10.07
2019-02-06T13:04:48.875Z,15.37
2019-02-06T13:07:31.025Z,29.67
2019-02-06T13:10:13.106Z,17.00
2019-02-06T13:12:55.090Z,15.30
2019-02-06T13:15:37.676Z,22.27
2019-02-06T13:18:19.783Z,29.37
2019-02-06T13:21:01.928Z,11.53
2019-02-06T13:23:44.122Z,15.00
2019-02-06T13:26:25.934Z,11.00
2019-02-06T13:29:07.887Z,10.23
2019-02-06T13:31:49.797Z,11.27
2019-02-06T13:34:31.802Z,12.43
2019-02-06T13:37:14.030Z,12.27
2019-02-06T13:39:56.902Z,10.33
2019-02-06T13:42:38.603Z,10.17
2019-02-06T13:45:20.438Z,15.63
2019-02-06T13:48:03.534Z,8.53
2019-02-06T13:50:45.643Z,9.97
2019-02-06T13:53:28.233Z,8.50
2019-02-06T13:56:09.974Z,8.53
2019-02-06T13:58:52.226Z,10.30
2019-02-06T14:01:34.239Z,9.13
2019-02-06T14:04:15.933Z,9.40
2019-02-06T14:06:57.890Z,8.57
2019-02-06T14:09:40.053Z,9.93
2019-02-06T14:12:22.363Z,9.40
2019-02-06T14:15:04.302Z,9.43
2019-02-06T14:17:46.235Z,17.50
2019-02-06T14:20:28.325Z,12.53
2019-02-06T14:23:10.252Z,14.13
2019-02-06T14:25:56.864Z,12.30
2019-02-06T14:29:05.708Z,20.00
2019-02-06T14:31:49.790Z,12.17
2019-02-06T14:34:31.567Z,15.37
2019-02-06T14:37:13.566Z,18.40
2019-02-06T14:39:55.906Z,12.23
2019-02-06T14:42:37.894Z,13.37
2019-02-06T14:45:19.540Z,11.37
2019-02-06T14:48:01.630Z,11.17
2019-02-06T14:50:43.322Z,10.53
2019-02-06T14:53:25.738Z,11.80
2019-02-06T14:56:08.118Z,13.20
2019-02-06T14:58:50.020Z,14.17
2019-02-06T15:01:32.554Z,13.27
2019-02-06T15:04:16.023Z,10.03
2019-02-06T15:06:58.352Z,11.80
2019-02-06T15:09:40.050Z,11.93
2019-02-06T15:12:21.814Z,16.03
2019-02-06T15:15:03.797Z,11.60
2019-02-06T15:17:45.818Z,13.40
2019-02-06T15:20:28.326Z,14.27
2019-02-06T15:23:10.694Z,11.10
2019-02-06T15:25:52.586Z,12.53
2019-02-06T15:28:34.420Z,13.03
2019-02-06T15:31:17.101Z,12.53
2019-02-06T15:33:58.831Z,12.23
2019-02-06T15:36:40.743Z,14.53
2019-02-06T15:39:23.343Z,16.57
2019-02-06T15:42:05.336Z,15.53
2019-02-06T15:44:47.670Z,12.27
2019-02-06T15:47:29.472Z,11.53
2019-02-06T15:50:11.099Z,14.03
2019-02-06T15:52:53.493Z,16.57
2019-02-06T15:55:35.772Z,18.60
2019-02-06T15:58:35.406Z,19.50
2019-02-06T16:01:45.429Z,17.60
2019-02-06T16:07:37.785Z,11.83
2019-02-06T16:10:20.382Z,12.83
2019-02-06T16:13:02.454Z,12.93
2019-02-06T16:15:44.654Z,13.13
2019-02-06T16:18:26.812Z,18.13
2019-02-06T16:21:09.054Z,162.27
2019-02-06T16:23:54.160Z,103.10
2019-02-06T16:26:36.246Z,89.00
2019-02-06T16:29:18.165Z,44.03
2019-02-06T16:32:00.774Z,26.20
2019-02-06T16:34:42.842Z,22.37
2019-02-06T16:37:25.084Z,31.27
2019-02-06T16:40:07.786Z,25.60
2019-02-06T16:42:49.861Z,21.73
2019-02-06T16:45:31.654Z,31.50
2019-02-06T16:48:14.175Z,30.77
2019-02-06T16:50:56.102Z,28.03
2019-02-06T16:53:38.083Z,34.43
2019-02-06T16:56:19.982Z,38.23
2019-02-06T16:59:02.142Z,39.03
2019-02-06T17:01:44.025Z,36.90
2019-02-06T17:04:25.964Z,30.40
2019-02-06T17:07:08.326Z,29.63
2019-02-06T17:10:10.371Z,24.73
2019-02-06T17:13:18.904Z,21.40
2019-02-06T17:16:02.366Z,26.57
2019-02-06T17:18:44.486Z,35.57
2019-02-06T17:21:26.638Z,28.73
2019-02-06T17:24:09.741Z,42.47
2019-02-06T17:26:51.442Z,36.33
2019-02-06T17:29:35.567Z,37.23
2019-02-06T17:32:44.140Z,36.57
2019-02-06T17:35:27.590Z,43.47
2019-02-06T17:38:09.951Z,46.20
2019-02-06T17:40:52.199Z,40.60
2019-02-06T17:43:34.815Z,37.00
2019-02-06T17:46:16.622Z,27.20
2019-02-06T17:48:58.491Z,28.67
2019-02-06T17:51:40.766Z,25.60
2019-02-06T17:54:22.594Z,27.57
2019-02-06T17:57:03.105Z,26.93
2019-02-06T17:59:52.735Z,30.93
2019-02-06T18:02:41.830Z,28.57
2019-02-06T18:05:24.078Z,27.40
2019-02-06T18:08:05.818Z,36.33
2019-02-06T18:10:47.948Z,32.73
2019-02-06T18:13:30.174Z,32.03
2019-02-06T18:16:21.062Z,35.27
2019-02-06T18:18:55.930Z,36.07
2019-02-06T18:21:37.703Z,31.90
2019-02-06T18:24:19.414Z,26.33
2019-02-06T18:27:01.363Z,28.50
2019-02-06T18:29:43.639Z,29.03
2019-02-06T18:32:25.874Z,26.33
2019-02-06T18:35:08.527Z,24.80
2019-02-06T18:37:51.046Z,32.30
2019-02-06T18:40:33.649Z,35.23
2019-02-06T18:43:15.469Z,39.77
2019-02-06T18:45:57.489Z,38.63
2019-02-06T18:48:39.805Z,31.43
2019-02-06T18:51:21.726Z,28.23
2019-02-06T18:54:11.151Z,26.80
2019-02-06T18:56:54.889Z,27.67
2019-02-06T18:59:36.853Z,26.53
2019-02-06T19:02:18.879Z,33.13
2019-02-06T19:05:01.034Z,29.87
2019-02-06T19:07:43.147Z,30.13
2019-02-06T19:10:24.792Z,26.10
2019-02-06T19:13:07.076Z,26.77
2019-02-06T19:15:56.220Z,24.07
2019-02-06T19:18:33.085Z,24.90
2019-02-06T19:21:14.915Z,29.93
2019-02-06T19:23:57.182Z,31.03
2019-02-06T19:26:38.998Z,29.63
2019-02-06T19:29:21.204Z,26.73
2019-02-06T19:32:03.342Z,27.50
2019-02-06T19:34:45.474Z,27.80
2019-02-06T19:37:27.573Z,33.93
2019-02-06T19:40:10.002Z,34.33
2019-02-06T19:43:00.193Z,33.70
2019-02-06T19:45:36.270Z,51.67
2019-02-06T19:48:20.235Z,53.63
2019-02-06T19:51:02.063Z,73.20
2019-02-06T19:53:44.237Z,71.93
2019-02-06T19:56:26.245Z,73.60
2019-02-06T19:59:08.727Z,60.00
2019-02-06T20:01:50.632Z,57.83
2019-02-06T20:04:33.486Z,51.17
2019-02-06T20:07:13.958Z,39.53
2019-02-06T20:10:03.436Z,37.10
2019-02-06T20:12:47.102Z,43.50
2019-02-06T20:15:28.967Z,47.20
2019-02-06T20:18:11.394Z,39.60
2019-02-06T20:20:53.091Z,32.13
2019-02-06T20:23:35.209Z,29.87
2019-02-06T20:26:17.214Z,25.13
2019-02-06T20:28:59.268Z,26.43
2019-02-06T20:31:42.050Z,27.10
2019-02-06T20:34:24.386Z,26.10
2019-02-06T20:37:06.198Z,27.37
2019-02-06T20:39:48.069Z,26.37
2019-02-06T20:42:30.274Z,25.37
2019-02-06T20:45:12.267Z,29.27
2019-02-06T20:47:54.478Z,30.13
2019-02-06T20:50:36.007Z,38.70
2019-02-06T20:53:18.028Z,37.90
2019-02-06T20:56:00.754Z,32.17
2019-02-06T20:58:43.026Z,35.17
2019-02-06T21:01:25.166Z,75.67
2019-02-06T21:04:07.022Z,65.40
2019-02-06T21:06:50.208Z,70.63
2019-02-06T21:09:35.285Z,285.27
2019-02-06T21:12:17.110Z,92.10
2019-02-06T21:14:58.886Z,48.80
2019-02-06T21:17:40.738Z,45.47
2019-02-06T21:20:22.802Z,50.50
2019-02-06T21:23:04.725Z,44.03
2019-02-06T21:25:46.850Z,36.90
2019-02-06T21:28:29.416Z,30.40
2019-02-06T21:31:11.510Z,24.43
2019-02-06T21:33:53.509Z,25.93
2019-02-06T21:36:35.622Z,24.43
2019-02-06T21:39:18.785Z,27.70
2019-02-06T21:42:00.831Z,22.93
2019-02-06T21:44:42.482Z,24.77
2019-02-06T21:47:24.999Z,25.23
2019-02-06T21:50:07.626Z,26.60
2019-02-06T21:52:49.794Z,24.40
2019-02-06T21:55:32.073Z,21.87
2019-02-06T21:58:14.310Z,27.77
2019-02-06T22:00:56.326Z,27.37
2019-02-06T22:03:38.669Z,33.27
2019-02-06T22:06:20.647Z,35.97
2019-02-06T22:09:03.002Z,34.00
2019-02-06T22:11:45.050Z,31.33
2019-02-06T22:14:27.781Z,33.87
2019-02-06T22:17:09.832Z,30.93
2019-02-06T22:19:51.962Z,28.90
2019-02-06T22:22:33.810Z,28.67
2019-02-06T22:25:15.899Z,27.23
2019-02-06T22:27:57.995Z,26.20
2019-02-06T22:30:39.906Z,23.00
2019-02-06T22:33:23.151Z,23.33
2019-02-06T22:36:05.390Z,24.70
2019-02-06T22:38:47.146Z,23.63
2019-02-06T22:41:29.798Z,25.77
2019-02-06T22:44:11.770Z,31.07
2019-02-06T22:46:54.122Z,31.73
2019-02-06T22:49:35.734Z,28.63
2019-02-06T22:52:18.117Z,27.07
2019-02-06T22:55:00.304Z,34.50
2019-02-06T22:57:42.199Z,34.47
2019-02-06T23:00:25.212Z,37.23
2019-02-06T23:03:07.242Z,37.40
2019-02-06T23:05:48.992Z,45.53
2019-02-06T23:08:30.747Z,40.47
2019-02-06T23:11:13.747Z,44.87
2019-02-06T23:13:55.442Z,44.23
2019-02-06T23:16:37.422Z,32.83
2019-02-06T23:19:19.422Z,37.47
2019-02-06T23:22:01.118Z,34.00
2019-02-06T23:24:43.126Z,29.13
2019-02-06T23:27:25.162Z,30.87
2019-02-06T23:30:07.747Z,32.80
2019-02-06T23:32:48.286Z,30.20
2019-02-06T23:35:37.814Z,27.33
2019-02-06T23:38:21.826Z,27.73
2019-02-06T23:41:04.186Z,27.30
2019-02-06T23:43:46.273Z,27.57
2019-02-06T23:46:28.290Z,24.73
2019-02-06T23:49:10.002Z,24.37
2019-02-06T23:51:52.215Z,32.43
2019-02-06T23:54:34.651Z,34.53
2019-02-06T23:57:17.065Z,31.13
2019-02-06T23:59:59.118Z,31.90
